Briefing drone pour Serignan

Rechercher une autre localisation

Conditions de vol :


Nous sommes le : Samedi 20 avril 2024
Il est 22:25 UTC (00:25 LT)

Lever de soleil : 04:28 UTC (06:28 LT)
Coucher de soleil : 19:02 UTC (21:02 LT)

Météo

L'essentiel des conditions de vol

VIGILANCE MÉTÉO FRANCE - Hérault (34)
Pas de vigilances particulieres
CARTE TEMSI
CARTES DES FRONTS
METAR de LFMU
LFMU 192200Z AUTO 02001KT CAVOK 10/M01 Q1017

Date d'émission: 19/04/2024
Heure d'émission: 22:00 UTC
Vent: 020° pour 1 KT (2 km/h)
Visibilité horizontale: > 10 km
Plafond : Plafond et visibilité OK (CAVOK)
Température: 10 °C
Point de rosée: -1 °C
Humidité: 46%
Pression (QNH): 1017 hPa
TAF de LFMU
LFMU 192030Z 1920/2015 CNL

Conditions prévues :

Heure d'émission : Bulletin éffectué le 19 à 20:00 UTC
Prévision : Valide du 19 a 20:00 UTC au 20 a 15:00 UTC
Nuages : à 0ft (0 m)
WEBCAM POUR SERIGNAN

Réglementation

Voler en sécurité

CARTES AERONAUTIQUE 1/500.000
CARTE AZBA (Reseau basse altitude)
CARTES VAC (LFMU)
SUP AIP




Chargement des AIP...
NOTAM (SERIGNAN + Terrain à proximité / FIR )




Chargement des NOTAMS...
CONTACT PREFECTURE 34
Hérault (34) : [email protected]


Avertissement : Les données mises à disposition sont indicatives. Oxygène Drone ne pourra être tenu responsable de dégâts causés aux biens et aux personnes.